sensor_id;sensor_type;location;lat;lon;timestamp;P1;durP1;ratioP1;P2;durP2;ratioP2
48516;SDS011;34310;51.904;4.256;2024-03-08T00:02:10;14.93;;;11.40;;
48516;SDS011;34310;51.904;4.256;2024-03-08T00:04:37;13.80;;;11.70;;
48516;SDS011;34310;51.904;4.256;2024-03-08T00:07:03;15.27;;;12.35;;
48516;SDS011;34310;51.904;4.256;2024-03-08T00:09:30;14.88;;;11.30;;
48516;SDS011;34310;51.904;4.256;2024-03-08T00:11:56;12.25;;;10.13;;
48516;SDS011;34310;51.904;4.256;2024-03-08T00:14:23;13.02;;;10.48;;
48516;SDS011;34310;51.904;4.256;2024-03-08T00:16:50;15.10;;;11.38;;
48516;SDS011;34310;51.904;4.256;2024-03-08T00:19:17;14.07;;;11.20;;
48516;SDS011;34310;51.904;4.256;2024-03-08T00:21:43;13.93;;;10.88;;
48516;SDS011;34310;51.904;4.256;2024-03-08T00:24:10;14.38;;;11.13;;
48516;SDS011;34310;51.904;4.256;2024-03-08T00:26:37;14.60;;;11.40;;
48516;SDS011;34310;51.904;4.256;2024-03-08T00:29:04;14.43;;;10.98;;
48516;SDS011;34310;51.904;4.256;2024-03-08T00:31:30;14.25;;;10.88;;
48516;SDS011;34310;51.904;4.256;2024-03-08T00:33:57;13.38;;;11.02;;
48516;SDS011;34310;51.904;4.256;2024-03-08T00:36:24;13.05;;;11.05;;
48516;SDS011;34310;51.904;4.256;2024-03-08T00:38:50;13.30;;;10.63;;
48516;SDS011;34310;51.904;4.256;2024-03-08T00:41:17;12.93;;;11.15;;
48516;SDS011;34310;51.904;4.256;2024-03-08T00:43:44;13.43;;;10.93;;
48516;SDS011;34310;51.904;4.256;2024-03-08T00:46:10;14.15;;;10.88;;
48516;SDS011;34310;51.904;4.256;2024-03-08T00:48:37;15.80;;;11.55;;
48516;SDS011;34310;51.904;4.256;2024-03-08T00:51:04;14.32;;;11.52;;
48516;SDS011;34310;51.904;4.256;2024-03-08T00:53:30;13.57;;;11.02;;
48516;SDS011;34310;51.904;4.256;2024-03-08T00:55:57;12.77;;;10.85;;
48516;SDS011;34310;51.904;4.256;2024-03-08T00:58:24;14.90;;;12.00;;
48516;SDS011;34310;51.904;4.256;2024-03-08T01:00:50;15.55;;;12.07;;
48516;SDS011;34310;51.904;4.256;2024-03-08T01:03:17;16.52;;;12.02;;
48516;SDS011;34310;51.904;4.256;2024-03-08T01:05:44;14.88;;;12.10;;
48516;SDS011;34310;51.904;4.256;2024-03-08T01:08:10;14.23;;;11.70;;
48516;SDS011;34310;51.904;4.256;2024-03-08T01:10:37;15.20;;;12.23;;
48516;SDS011;34310;51.904;4.256;2024-03-08T01:13:03;15.70;;;12.13;;
48516;SDS011;34310;51.904;4.256;2024-03-08T01:15:30;14.57;;;12.40;;
48516;SDS011;34310;51.904;4.256;2024-03-08T01:17:57;14.40;;;12.02;;
48516;SDS011;34310;51.904;4.256;2024-03-08T01:20:23;14.25;;;12.30;;
48516;SDS011;34310;51.904;4.256;2024-03-08T01:22:50;14.07;;;11.95;;
48516;SDS011;34310;51.904;4.256;2024-03-08T01:25:17;13.48;;;11.48;;
48516;SDS011;34310;51.904;4.256;2024-03-08T01:27:43;15.27;;;12.38;;
48516;SDS011;34310;51.904;4.256;2024-03-08T01:30:10;14.77;;;12.35;;
48516;SDS011;34310;51.904;4.256;2024-03-08T01:32:37;14.43;;;11.40;;
48516;SDS011;34310;51.904;4.256;2024-03-08T01:35:03;14.13;;;12.25;;
48516;SDS011;34310;51.904;4.256;2024-03-08T01:37:30;15.07;;;12.10;;
48516;SDS011;34310;51.904;4.256;2024-03-08T01:39:57;14.45;;;12.32;;
48516;SDS011;34310;51.904;4.256;2024-03-08T01:42:24;15.52;;;12.30;;
48516;SDS011;34310;51.904;4.256;2024-03-08T01:44:50;14.45;;;12.25;;
48516;SDS011;34310;51.904;4.256;2024-03-08T01:47:17;15.13;;;12.70;;
48516;SDS011;34310;51.904;4.256;2024-03-08T01:49:44;15.00;;;11.70;;
48516;SDS011;34310;51.904;4.256;2024-03-08T01:52:11;14.38;;;12.05;;
48516;SDS011;34310;51.904;4.256;2024-03-08T01:54:38;15.63;;;12.35;;
48516;SDS011;34310;51.904;4.256;2024-03-08T01:57:04;14.98;;;12.85;;
48516;SDS011;34310;51.904;4.256;2024-03-08T01:59:31;13.52;;;11.93;;
48516;SDS011;34310;51.904;4.256;2024-03-08T02:02:00;15.80;;;12.88;;
48516;SDS011;34310;51.904;4.256;2024-03-08T02:04:28;14.40;;;12.23;;
48516;SDS011;34310;51.904;4.256;2024-03-08T02:06:55;15.93;;;12.75;;
48516;SDS011;34310;51.904;4.256;2024-03-08T02:09:22;14.98;;;12.43;;
48516;SDS011;34310;51.904;4.256;2024-03-08T02:11:48;16.33;;;12.68;;
48516;SDS011;34310;51.904;4.256;2024-03-08T02:14:15;14.48;;;12.38;;
48516;SDS011;34310;51.904;4.256;2024-03-08T02:16:41;15.10;;;12.60;;
48516;SDS011;34310;51.904;4.256;2024-03-08T02:19:08;17.33;;;13.98;;
48516;SDS011;34310;51.904;4.256;2024-03-08T02:21:35;16.40;;;12.93;;
48516;SDS011;34310;51.904;4.256;2024-03-08T02:24:01;15.13;;;12.55;;
48516;SDS011;34310;51.904;4.256;2024-03-08T02:26:28;14.77;;;12.40;;
48516;SDS011;34310;51.904;4.256;2024-03-08T02:28:55;15.75;;;12.90;;
48516;SDS011;34310;51.904;4.256;2024-03-08T02:31:21;15.10;;;11.77;;
48516;SDS011;34310;51.904;4.256;2024-03-08T02:33:48;15.60;;;12.60;;
48516;SDS011;34310;51.904;4.256;2024-03-08T02:36:15;13.82;;;12.02;;
48516;SDS011;34310;51.904;4.256;2024-03-08T02:38:41;14.75;;;12.40;;
48516;SDS011;34310;51.904;4.256;2024-03-08T02:41:08;14.23;;;11.80;;
48516;SDS011;34310;51.904;4.256;2024-03-08T02:43:34;16.42;;;12.30;;
48516;SDS011;34310;51.904;4.256;2024-03-08T02:46:01;15.35;;;12.63;;
48516;SDS011;34310;51.904;4.256;2024-03-08T02:48:28;15.10;;;12.45;;
48516;SDS011;34310;51.904;4.256;2024-03-08T02:50:54;13.77;;;12.10;;
48516;SDS011;34310;51.904;4.256;2024-03-08T02:53:21;14.55;;;12.30;;
48516;SDS011;34310;51.904;4.256;2024-03-08T02:55:48;14.18;;;12.07;;
48516;SDS011;34310;51.904;4.256;2024-03-08T02:58:14;14.60;;;12.40;;
48516;SDS011;34310;51.904;4.256;2024-03-08T03:00:41;15.15;;;12.73;;
48516;SDS011;34310;51.904;4.256;2024-03-08T03:03:08;15.35;;;12.93;;
48516;SDS011;34310;51.904;4.256;2024-03-08T03:05:35;16.60;;;13.63;;
48516;SDS011;34310;51.904;4.256;2024-03-08T03:08:02;16.17;;;12.85;;
48516;SDS011;34310;51.904;4.256;2024-03-08T03:10:29;17.88;;;13.27;;
48516;SDS011;34310;51.904;4.256;2024-03-08T03:12:55;15.43;;;12.85;;
48516;SDS011;34310;51.904;4.256;2024-03-08T03:15:22;13.85;;;12.35;;
48516;SDS011;34310;51.904;4.256;2024-03-08T03:17:52;14.05;;;12.02;;
48516;SDS011;34310;51.904;4.256;2024-03-08T03:20:19;12.65;;;11.15;;
48516;SDS011;34310;51.904;4.256;2024-03-08T03:22:46;13.13;;;10.80;;
48516;SDS011;34310;51.904;4.256;2024-03-08T03:25:12;12.18;;;10.38;;
48516;SDS011;34310;51.904;4.256;2024-03-08T03:27:39;12.60;;;10.38;;
48516;SDS011;34310;51.904;4.256;2024-03-08T03:30:06;11.60;;;10.00;;
48516;SDS011;34310;51.904;4.256;2024-03-08T03:32:33;13.07;;;10.82;;
48516;SDS011;34310;51.904;4.256;2024-03-08T03:34:59;12.25;;;10.57;;
48516;SDS011;34310;51.904;4.256;2024-03-08T03:37:26;11.23;;;10.00;;
48516;SDS011;34310;51.904;4.256;2024-03-08T03:39:53;11.73;;;10.52;;
48516;SDS011;34310;51.904;4.256;2024-03-08T03:42:19;11.57;;;10.30;;
48516;SDS011;34310;51.904;4.256;2024-03-08T03:44:46;12.80;;;10.18;;
48516;SDS011;34310;51.904;4.256;2024-03-08T03:47:14;11.15;;;9.95;;
48516;SDS011;34310;51.904;4.256;2024-03-08T03:49:41;11.00;;;9.50;;
48516;SDS011;34310;51.904;4.256;2024-03-08T03:52:08;12.15;;;10.13;;
48516;SDS011;34310;51.904;4.256;2024-03-08T03:54:35;10.73;;;9.63;;
48516;SDS011;34310;51.904;4.256;2024-03-08T03:57:02;10.68;;;9.57;;
48516;SDS011;34310;51.904;4.256;2024-03-08T03:59:29;10.98;;;9.82;;
48516;SDS011;34310;51.904;4.256;2024-03-08T04:01:55;11.75;;;10.40;;
48516;SDS011;34310;51.904;4.256;2024-03-08T04:04:22;10.65;;;9.43;;
48516;SDS011;34310;51.904;4.256;2024-03-08T04:06:49;10.25;;;9.05;;
48516;SDS011;34310;51.904;4.256;2024-03-08T04:09:15;10.60;;;9.40;;
48516;SDS011;34310;51.904;4.256;2024-03-08T04:11:42;11.00;;;9.73;;
48516;SDS011;34310;51.904;4.256;2024-03-08T04:14:08;11.75;;;10.32;;
48516;SDS011;34310;51.904;4.256;2024-03-08T04:16:35;11.27;;;9.98;;
48516;SDS011;34310;51.904;4.256;2024-03-08T04:19:02;11.32;;;9.73;;
48516;SDS011;34310;51.904;4.256;2024-03-08T04:21:29;10.25;;;9.25;;
48516;SDS011;34310;51.904;4.256;2024-03-08T04:23:56;12.25;;;10.48;;
48516;SDS011;34310;51.904;4.256;2024-03-08T04:26:23;11.65;;;10.38;;
48516;SDS011;34310;51.904;4.256;2024-03-08T04:28:49;11.75;;;10.55;;
48516;SDS011;34310;51.904;4.256;2024-03-08T04:31:16;12.32;;;11.02;;
48516;SDS011;34310;51.904;4.256;2024-03-08T04:33:42;12.75;;;10.93;;
48516;SDS011;34310;51.904;4.256;2024-03-08T04:36:09;12.25;;;10.95;;
48516;SDS011;34310;51.904;4.256;2024-03-08T04:38:36;12.13;;;10.82;;
48516;SDS011;34310;51.904;4.256;2024-03-08T04:41:03;12.13;;;10.82;;
48516;SDS011;34310;51.904;4.256;2024-03-08T04:43:30;12.85;;;11.43;;
48516;SDS011;34310;51.904;4.256;2024-03-08T04:45:56;12.43;;;11.13;;
48516;SDS011;34310;51.904;4.256;2024-03-08T04:48:23;12.68;;;11.23;;
48516;SDS011;34310;51.904;4.256;2024-03-08T04:50:50;13.20;;;11.10;;
48516;SDS011;34310;51.904;4.256;2024-03-08T04:53:16;12.73;;;11.43;;
48516;SDS011;34310;51.904;4.256;2024-03-08T04:55:43;12.45;;;11.02;;
48516;SDS011;34310;51.904;4.256;2024-03-08T04:58:09;11.93;;;10.73;;
48516;SDS011;34310;51.904;4.256;2024-03-08T05:00:36;13.02;;;11.63;;
48516;SDS011;34310;51.904;4.256;2024-03-08T05:03:03;12.82;;;11.48;;
48516;SDS011;34310;51.904;4.256;2024-03-08T05:05:30;13.65;;;11.52;;
48516;SDS011;34310;51.904;4.256;2024-03-08T05:07:57;12.23;;;10.88;;
48516;SDS011;34310;51.904;4.256;2024-03-08T05:10:23;13.05;;;11.68;;
48516;SDS011;34310;51.904;4.256;2024-03-08T05:12:50;12.80;;;11.38;;
48516;SDS011;34310;51.904;4.256;2024-03-08T05:15:19;13.07;;;11.68;;
48516;SDS011;34310;51.904;4.256;2024-03-08T05:17:46;14.05;;;12.10;;
48516;SDS011;34310;51.904;4.256;2024-03-08T05:20:13;14.07;;;12.57;;
48516;SDS011;34310;51.904;4.256;2024-03-08T05:22:39;13.77;;;12.30;;
48516;SDS011;34310;51.904;4.256;2024-03-08T05:25:06;13.77;;;12.27;;
48516;SDS011;34310;51.904;4.256;2024-03-08T05:27:33;13.60;;;12.20;;
48516;SDS011;34310;51.904;4.256;2024-03-08T05:30:00;13.98;;;12.48;;
48516;SDS011;34310;51.904;4.256;2024-03-08T05:32:26;14.43;;;12.90;;
48516;SDS011;34310;51.904;4.256;2024-03-08T05:34:56;15.82;;;13.05;;
48516;SDS011;34310;51.904;4.256;2024-03-08T05:37:23;13.85;;;12.45;;
48516;SDS011;34310;51.904;4.256;2024-03-08T05:39:49;13.65;;;12.23;;
48516;SDS011;34310;51.904;4.256;2024-03-08T05:42:16;14.07;;;12.52;;
48516;SDS011;34310;51.904;4.256;2024-03-08T05:44:43;14.43;;;12.93;;
48516;SDS011;34310;51.904;4.256;2024-03-08T05:47:09;14.30;;;12.73;;
48516;SDS011;34310;51.904;4.256;2024-03-08T05:49:36;14.48;;;12.68;;
48516;SDS011;34310;51.904;4.256;2024-03-08T05:52:02;14.50;;;12.98;;
48516;SDS011;34310;51.904;4.256;2024-03-08T05:54:29;14.65;;;12.60;;
48516;SDS011;34310;51.904;4.256;2024-03-08T05:56:56;14.20;;;12.75;;
48516;SDS011;34310;51.904;4.256;2024-03-08T05:59:22;14.40;;;12.90;;
48516;SDS011;34310;51.904;4.256;2024-03-08T06:01:49;14.50;;;13.00;;
48516;SDS011;34310;51.904;4.256;2024-03-08T06:04:16;15.10;;;12.88;;
48516;SDS011;34310;51.904;4.256;2024-03-08T06:06:42;14.73;;;13.02;;
48516;SDS011;34310;51.904;4.256;2024-03-08T06:09:09;14.00;;;12.60;;
48516;SDS011;34310;51.904;4.256;2024-03-08T06:11:36;15.13;;;13.55;;
48516;SDS011;34310;51.904;4.256;2024-03-08T06:14:02;14.65;;;13.13;;
48516;SDS011;34310;51.904;4.256;2024-03-08T06:16:29;15.40;;;13.52;;
48516;SDS011;34310;51.904;4.256;2024-03-08T06:18:56;15.75;;;14.07;;
48516;SDS011;34310;51.904;4.256;2024-03-08T06:21:23;17.17;;;14.88;;
48516;SDS011;34310;51.904;4.256;2024-03-08T06:23:50;17.67;;;15.88;;
48516;SDS011;34310;51.904;4.256;2024-03-08T06:26:17;15.10;;;13.40;;
48516;SDS011;34310;51.904;4.256;2024-03-08T06:28:43;15.52;;;13.80;;
48516;SDS011;34310;51.904;4.256;2024-03-08T06:31:10;14.75;;;13.25;;
48516;SDS011;34310;51.904;4.256;2024-03-08T06:33:36;15.10;;;13.50;;
48516;SDS011;34310;51.904;4.256;2024-03-08T06:36:03;15.10;;;13.43;;
48516;SDS011;34310;51.904;4.256;2024-03-08T06:38:30;14.07;;;12.55;;
48516;SDS011;34310;51.904;4.256;2024-03-08T06:40:57;13.65;;;12.25;;
48516;SDS011;34310;51.904;4.256;2024-03-08T06:43:24;13.68;;;12.23;;
48516;SDS011;34310;51.904;4.256;2024-03-08T06:45:50;15.13;;;12.45;;
48516;SDS011;34310;51.904;4.256;2024-03-08T06:48:17;13.40;;;11.80;;
48516;SDS011;34310;51.904;4.256;2024-03-08T06:50:44;13.27;;;11.88;;
48516;SDS011;34310;51.904;4.256;2024-03-08T06:53:11;13.88;;;11.93;;
48516;SDS011;34310;51.904;4.256;2024-03-08T06:55:38;13.32;;;11.57;;
48516;SDS011;34310;51.904;4.256;2024-03-08T06:58:05;12.20;;;10.98;;
48516;SDS011;34310;51.904;4.256;2024-03-08T07:00:33;14.40;;;12.20;;
48516;SDS011;34310;51.904;4.256;2024-03-08T07:03:00;13.30;;;11.60;;
48516;SDS011;34310;51.904;4.256;2024-03-08T07:05:27;12.88;;;11.57;;
48516;SDS011;34310;51.904;4.256;2024-03-08T07:07:56;13.05;;;11.57;;
48516;SDS011;34310;51.904;4.256;2024-03-08T07:10:23;12.98;;;11.57;;
48516;SDS011;34310;51.904;4.256;2024-03-08T07:12:50;12.55;;;11.30;;
48516;SDS011;34310;51.904;4.256;2024-03-08T07:15:17;12.13;;;10.93;;
48516;SDS011;34310;51.904;4.256;2024-03-08T07:17:44;13.23;;;11.77;;
48516;SDS011;34310;51.904;4.256;2024-03-08T07:20:11;13.02;;;11.73;;
48516;SDS011;34310;51.904;4.256;2024-03-08T07:22:38;12.77;;;11.48;;
48516;SDS011;34310;51.904;4.256;2024-03-08T07:25:05;12.05;;;10.82;;
48516;SDS011;34310;51.904;4.256;2024-03-08T07:27:32;12.02;;;10.82;;
48516;SDS011;34310;51.904;4.256;2024-03-08T07:29:58;13.65;;;11.90;;
48516;SDS011;34310;51.904;4.256;2024-03-08T07:32:28;18.10;;;15.60;;
48516;SDS011;34310;51.904;4.256;2024-03-08T07:34:58;18.50;;;15.70;;
48516;SDS011;34310;51.904;4.256;2024-03-08T07:37:24;19.10;;;16.35;;
48516;SDS011;34310;51.904;4.256;2024-03-08T07:39:51;18.83;;;15.77;;
48516;SDS011;34310;51.904;4.256;2024-03-08T07:42:17;21.65;;;15.52;;
48516;SDS011;34310;51.904;4.256;2024-03-08T07:44:44;20.23;;;15.45;;
48516;SDS011;34310;51.904;4.256;2024-03-08T07:47:11;19.08;;;16.55;;
48516;SDS011;34310;51.904;4.256;2024-03-08T07:49:37;20.73;;;16.20;;
48516;SDS011;34310;51.904;4.256;2024-03-08T07:52:04;18.88;;;16.52;;
48516;SDS011;34310;51.904;4.256;2024-03-08T07:54:31;17.65;;;15.60;;
48516;SDS011;34310;51.904;4.256;2024-03-08T07:56:57;18.67;;;16.45;;
48516;SDS011;34310;51.904;4.256;2024-03-08T07:59:24;17.92;;;16.00;;
48516;SDS011;34310;51.904;4.256;2024-03-08T08:01:51;18.75;;;16.38;;
48516;SDS011;34310;51.904;4.256;2024-03-08T08:04:17;18.48;;;16.48;;
48516;SDS011;34310;51.904;4.256;2024-03-08T08:06:44;19.50;;;16.15;;
48516;SDS011;34310;51.904;4.256;2024-03-08T08:09:11;18.85;;;16.63;;
48516;SDS011;34310;51.904;4.256;2024-03-08T08:11:40;18.27;;;16.35;;
48516;SDS011;34310;51.904;4.256;2024-03-08T08:14:07;18.83;;;16.83;;
48516;SDS011;34310;51.904;4.256;2024-03-08T08:16:34;18.80;;;16.05;;
48516;SDS011;34310;51.904;4.256;2024-03-08T08:19:01;19.48;;;16.77;;
48516;SDS011;34310;51.904;4.256;2024-03-08T08:21:27;20.40;;;17.08;;
48516;SDS011;34310;51.904;4.256;2024-03-08T08:23:54;17.92;;;15.52;;
48516;SDS011;34310;51.904;4.256;2024-03-08T08:26:21;18.63;;;16.48;;
48516;SDS011;34310;51.904;4.256;2024-03-08T08:28:47;18.45;;;16.17;;
48516;SDS011;34310;51.904;4.256;2024-03-08T08:31:14;20.17;;;16.70;;
48516;SDS011;34310;51.904;4.256;2024-03-08T08:33:41;19.45;;;16.08;;
48516;SDS011;34310;51.904;4.256;2024-03-08T08:36:07;18.15;;;16.25;;
48516;SDS011;34310;51.904;4.256;2024-03-08T08:38:34;18.27;;;16.38;;
48516;SDS011;34310;51.904;4.256;2024-03-08T08:41:00;18.40;;;16.40;;
48516;SDS011;34310;51.904;4.256;2024-03-08T08:43:27;18.88;;;16.77;;
48516;SDS011;34310;51.904;4.256;2024-03-08T08:45:54;19.33;;;16.80;;
48516;SDS011;34310;51.904;4.256;2024-03-08T08:48:21;20.73;;;17.50;;
48516;SDS011;34310;51.904;4.256;2024-03-08T08:50:47;19.10;;;16.63;;
48516;SDS011;34310;51.904;4.256;2024-03-08T08:53:14;20.27;;;17.90;;
48516;SDS011;34310;51.904;4.256;2024-03-08T08:55:41;18.02;;;16.08;;
48516;SDS011;34310;51.904;4.256;2024-03-08T08:58:07;21.35;;;16.40;;
48516;SDS011;34310;51.904;4.256;2024-03-08T09:00:34;18.10;;;15.60;;
48516;SDS011;34310;51.904;4.256;2024-03-08T09:03:01;18.58;;;16.58;;
48516;SDS011;34310;51.904;4.256;2024-03-08T09:05:27;19.17;;;17.15;;
48516;SDS011;34310;51.904;4.256;2024-03-08T09:07:54;18.58;;;16.23;;
48516;SDS011;34310;51.904;4.256;2024-03-08T09:10:22;18.27;;;16.25;;
48516;SDS011;34310;51.904;4.256;2024-03-08T09:12:55;19.25;;;16.30;;
48516;SDS011;34310;51.904;4.256;2024-03-08T09:15:22;19.13;;;16.70;;
48516;SDS011;34310;51.904;4.256;2024-03-08T09:17:48;18.73;;;16.65;;
48516;SDS011;34310;51.904;4.256;2024-03-08T09:20:15;18.58;;;16.58;;
48516;SDS011;34310;51.904;4.256;2024-03-08T09:22:44;19.20;;;16.70;;
48516;SDS011;34310;51.904;4.256;2024-03-08T09:25:11;18.38;;;16.30;;
48516;SDS011;34310;51.904;4.256;2024-03-08T09:27:38;17.48;;;15.60;;
48516;SDS011;34310;51.904;4.256;2024-03-08T09:30:05;18.60;;;16.70;;
48516;SDS011;34310;51.904;4.256;2024-03-08T09:32:32;18.88;;;15.85;;
48516;SDS011;34310;51.904;4.256;2024-03-08T09:34:59;21.50;;;16.65;;
48516;SDS011;34310;51.904;4.256;2024-03-08T09:37:26;21.02;;;16.02;;
48516;SDS011;34310;51.904;4.256;2024-03-08T09:39:52;17.38;;;15.40;;
48516;SDS011;34310;51.904;4.256;2024-03-08T09:42:19;17.70;;;15.80;;
48516;SDS011;34310;51.904;4.256;2024-03-08T09:44:46;17.52;;;15.63;;
48516;SDS011;34310;51.904;4.256;2024-03-08T09:47:13;18.90;;;15.40;;
48516;SDS011;34310;51.904;4.256;2024-03-08T09:49:41;18.88;;;15.25;;
48516;SDS011;34310;51.904;4.256;2024-03-08T09:52:08;18.17;;;16.10;;
48516;SDS011;34310;51.904;4.256;2024-03-08T09:54:35;17.52;;;15.15;;
48516;SDS011;34310;51.904;4.256;2024-03-08T09:57:03;19.30;;;16.15;;
48516;SDS011;34310;51.904;4.256;2024-03-08T09:59:30;17.67;;;15.77;;
48516;SDS011;34310;51.904;4.256;2024-03-08T10:01:57;18.50;;;15.95;;
48516;SDS011;34310;51.904;4.256;2024-03-08T10:04:24;17.35;;;15.13;;
48516;SDS011;34310;51.904;4.256;2024-03-08T10:06:50;16.90;;;15.13;;
48516;SDS011;34310;51.904;4.256;2024-03-08T10:09:17;16.70;;;15.00;;
48516;SDS011;34310;51.904;4.256;2024-03-08T10:11:44;16.17;;;14.52;;
48516;SDS011;34310;51.904;4.256;2024-03-08T10:14:11;17.13;;;15.15;;
48516;SDS011;34310;51.904;4.256;2024-03-08T10:16:38;16.23;;;14.52;;
48516;SDS011;34310;51.904;4.256;2024-03-08T10:19:05;17.83;;;15.93;;
48516;SDS011;34310;51.904;4.256;2024-03-08T10:21:32;17.45;;;15.23;;
48516;SDS011;34310;51.904;4.256;2024-03-08T10:23:58;16.70;;;14.90;;
48516;SDS011;34310;51.904;4.256;2024-03-08T10:26:25;16.80;;;14.98;;
48516;SDS011;34310;51.904;4.256;2024-03-08T10:28:52;16.70;;;14.95;;
48516;SDS011;34310;51.904;4.256;2024-03-08T10:31:19;16.67;;;14.98;;
48516;SDS011;34310;51.904;4.256;2024-03-08T10:33:46;16.17;;;14.50;;
48516;SDS011;34310;51.904;4.256;2024-03-08T10:36:13;16.80;;;14.77;;
48516;SDS011;34310;51.904;4.256;2024-03-08T10:38:42;16.40;;;14.25;;
48516;SDS011;34310;51.904;4.256;2024-03-08T10:41:10;16.95;;;14.80;;
48516;SDS011;34310;51.904;4.256;2024-03-08T10:46:40;15.43;;;13.70;;
48516;SDS011;34310;51.904;4.256;2024-03-08T10:49:30;16.38;;;14.68;;
48516;SDS011;34310;51.904;4.256;2024-03-08T10:51:58;17.35;;;14.32;;
48516;SDS011;34310;51.904;4.256;2024-03-08T10:54:25;17.27;;;14.23;;
48516;SDS011;34310;51.904;4.256;2024-03-08T10:56:53;17.10;;;14.38;;
48516;SDS011;34310;51.904;4.256;2024-03-08T10:59:20;16.33;;;14.00;;
48516;SDS011;34310;51.904;4.256;2024-03-08T11:01:47;15.95;;;14.25;;
48516;SDS011;34310;51.904;4.256;2024-03-08T11:04:13;14.48;;;12.98;;
48516;SDS011;34310;51.904;4.256;2024-03-08T11:14:47;15.63;;;13.80;;
48516;SDS011;34310;51.904;4.256;2024-03-08T11:18:00;16.20;;;14.50;;
48516;SDS011;34310;51.904;4.256;2024-03-08T11:20:12;15.23;;;13.63;;
48516;SDS011;34310;51.904;4.256;2024-03-08T11:22:39;14.98;;;13.48;;
48516;SDS011;34310;51.904;4.256;2024-03-08T11:25:08;14.85;;;13.25;;
48516;SDS011;34310;51.904;4.256;2024-03-08T11:27:35;15.27;;;13.68;;
48516;SDS011;34310;51.904;4.256;2024-03-08T11:30:03;16.23;;;14.52;;
48516;SDS011;34310;51.904;4.256;2024-03-08T11:32:34;15.80;;;13.60;;
48516;SDS011;34310;51.904;4.256;2024-03-08T11:35:02;14.77;;;13.23;;
48516;SDS011;34310;51.904;4.256;2024-03-08T11:37:33;15.55;;;13.30;;
48516;SDS011;34310;51.904;4.256;2024-03-08T11:40:00;16.10;;;13.20;;
48516;SDS011;34310;51.904;4.256;2024-03-08T11:42:27;14.55;;;13.05;;
48516;SDS011;34310;51.904;4.256;2024-03-08T11:44:54;15.15;;;13.63;;
48516;SDS011;34310;51.904;4.256;2024-03-08T11:47:20;14.95;;;13.40;;
48516;SDS011;34310;51.904;4.256;2024-03-08T11:49:47;15.27;;;13.73;;
48516;SDS011;34310;51.904;4.256;2024-03-08T11:52:15;15.52;;;13.93;;
48516;SDS011;34310;51.904;4.256;2024-03-08T11:54:43;14.93;;;13.40;;
48516;SDS011;34310;51.904;4.256;2024-03-08T11:57:18;15.88;;;13.90;;
48516;SDS011;34310;51.904;4.256;2024-03-08T11:59:51;15.93;;;13.95;;
48516;SDS011;34310;51.904;4.256;2024-03-08T12:02:23;15.15;;;12.98;;
48516;SDS011;34310;51.904;4.256;2024-03-08T12:04:59;15.10;;;13.10;;
48516;SDS011;34310;51.904;4.256;2024-03-08T12:07:27;14.55;;;13.05;;
48516;SDS011;34310;51.904;4.256;2024-03-08T12:12:43;15.77;;;13.95;;
48516;SDS011;34310;51.904;4.256;2024-03-08T12:15:11;15.07;;;13.45;;
48516;SDS011;34310;51.904;4.256;2024-03-08T12:17:38;15.40;;;13.50;;
48516;SDS011;34310;51.904;4.256;2024-03-08T12:20:11;14.38;;;12.88;;
48516;SDS011;34310;51.904;4.256;2024-03-08T12:22:42;17.63;;;14.68;;
48516;SDS011;34310;51.904;4.256;2024-03-08T12:25:10;15.13;;;13.48;;
48516;SDS011;34310;51.904;4.256;2024-03-08T12:27:38;15.75;;;14.00;;
48516;SDS011;34310;51.904;4.256;2024-03-08T12:30:18;15.88;;;14.18;;
48516;SDS011;34310;51.904;4.256;2024-03-08T12:32:47;15.90;;;14.15;;
48516;SDS011;34310;51.904;4.256;2024-03-08T12:35:15;15.90;;;14.20;;
48516;SDS011;34310;51.904;4.256;2024-03-08T12:37:42;16.17;;;14.23;;
48516;SDS011;34310;51.904;4.256;2024-03-08T12:40:09;16.65;;;14.23;;
48516;SDS011;34310;51.904;4.256;2024-03-08T12:42:36;16.00;;;13.88;;
48516;SDS011;34310;51.904;4.256;2024-03-08T12:45:02;15.80;;;14.10;;
48516;SDS011;34310;51.904;4.256;2024-03-08T12:47:29;14.80;;;13.07;;
48516;SDS011;34310;51.904;4.256;2024-03-08T12:49:56;16.92;;;14.30;;
48516;SDS011;34310;51.904;4.256;2024-03-08T12:52:22;16.52;;;13.90;;
48516;SDS011;34310;51.904;4.256;2024-03-08T12:54:49;17.55;;;14.80;;
48516;SDS011;34310;51.904;4.256;2024-03-08T12:57:15;17.58;;;14.35;;
48516;SDS011;34310;51.904;4.256;2024-03-08T12:59:42;17.58;;;14.95;;
48516;SDS011;34310;51.904;4.256;2024-03-08T13:02:09;19.52;;;14.35;;
48516;SDS011;34310;51.904;4.256;2024-03-08T13:04:35;16.55;;;13.80;;
48516;SDS011;34310;51.904;4.256;2024-03-08T13:07:02;16.98;;;14.18;;
48516;SDS011;34310;51.904;4.256;2024-03-08T13:09:29;17.63;;;14.30;;
48516;SDS011;34310;51.904;4.256;2024-03-08T13:11:55;16.25;;;14.00;;
48516;SDS011;34310;51.904;4.256;2024-03-08T13:14:22;15.35;;;13.52;;
48516;SDS011;34310;51.904;4.256;2024-03-08T13:16:49;15.80;;;13.88;;
48516;SDS011;34310;51.904;4.256;2024-03-08T13:19:15;17.73;;;14.27;;
48516;SDS011;34310;51.904;4.256;2024-03-08T13:21:42;16.70;;;13.55;;
48516;SDS011;34310;51.904;4.256;2024-03-08T13:24:08;15.32;;;13.57;;
48516;SDS011;34310;51.904;4.256;2024-03-08T13:26:35;15.90;;;13.40;;
48516;SDS011;34310;51.904;4.256;2024-03-08T13:29:02;15.40;;;13.35;;
48516;SDS011;34310;51.904;4.256;2024-03-08T13:31:28;15.73;;;12.82;;
48516;SDS011;34310;51.904;4.256;2024-03-08T13:33:55;16.23;;;13.65;;
48516;SDS011;34310;51.904;4.256;2024-03-08T13:36:22;15.88;;;13.63;;
48516;SDS011;34310;51.904;4.256;2024-03-08T13:38:48;15.82;;;13.55;;
48516;SDS011;34310;51.904;4.256;2024-03-08T13:41:15;15.20;;;12.90;;
48516;SDS011;34310;51.904;4.256;2024-03-08T13:43:45;15.18;;;13.55;;
48516;SDS011;34310;51.904;4.256;2024-03-08T13:46:13;15.55;;;13.68;;
48516;SDS011;34310;51.904;4.256;2024-03-08T13:48:40;17.52;;;13.48;;
48516;SDS011;34310;51.904;4.256;2024-03-08T13:51:07;14.48;;;12.98;;
48516;SDS011;34310;51.904;4.256;2024-03-08T13:53:34;15.05;;;13.05;;
48516;SDS011;34310;51.904;4.256;2024-03-08T13:56:01;14.82;;;12.75;;
48516;SDS011;34310;51.904;4.256;2024-03-08T13:58:29;13.27;;;11.80;;
48516;SDS011;34310;51.904;4.256;2024-03-08T14:00:55;14.80;;;13.13;;
48516;SDS011;34310;51.904;4.256;2024-03-08T14:03:22;14.45;;;12.20;;
48516;SDS011;34310;51.904;4.256;2024-03-08T14:05:49;16.27;;;13.10;;
48516;SDS011;34310;51.904;4.256;2024-03-08T14:08:16;14.15;;;12.20;;
48516;SDS011;34310;51.904;4.256;2024-03-08T14:10:42;14.50;;;13.00;;
48516;SDS011;34310;51.904;4.256;2024-03-08T14:13:09;15.10;;;13.32;;
48516;SDS011;34310;51.904;4.256;2024-03-08T14:15:36;15.90;;;13.25;;
48516;SDS011;34310;51.904;4.256;2024-03-08T14:18:03;14.95;;;13.18;;
48516;SDS011;34310;51.904;4.256;2024-03-08T14:20:29;16.67;;;13.68;;
48516;SDS011;34310;51.904;4.256;2024-03-08T14:22:56;15.23;;;13.60;;
48516;SDS011;34310;51.904;4.256;2024-03-08T14:25:23;15.02;;;13.35;;
48516;SDS011;34310;51.904;4.256;2024-03-08T14:27:51;15.23;;;13.15;;
48516;SDS011;34310;51.904;4.256;2024-03-08T14:30:19;14.70;;;12.95;;
48516;SDS011;34310;51.904;4.256;2024-03-08T14:32:46;15.35;;;13.60;;
48516;SDS011;34310;51.904;4.256;2024-03-08T14:35:13;16.45;;;14.07;;